sensor_id;sensor_type;location;lat;lon;timestamp;temperature;humidity
24232;DHT22;12364;47.810;8.810;2023-04-24T03:46:31;14.20;94.00
24232;DHT22;12364;47.810;8.810;2023-04-24T03:48:58;14.00;93.90
24232;DHT22;12364;47.810;8.810;2023-04-24T03:51:25;14.20;94.20
24232;DHT22;12364;47.810;8.810;2023-04-24T03:53:54;14.00;94.10
24232;DHT22;12364;47.810;8.810;2023-04-24T03:56:21;14.00;94.10
24232;DHT22;12364;47.810;8.810;2023-04-24T03:58:48;13.90;94.10
24232;DHT22;12364;47.810;8.810;2023-04-24T04:01:15;13.90;93.90
24232;DHT22;12364;47.810;8.810;2023-04-24T04:03:43;14.10;94.00
24232;DHT22;12364;47.810;8.810;2023-04-24T04:06:10;13.90;94.00
24232;DHT22;12364;47.810;8.810;2023-04-24T04:08:38;13.90;94.10
24232;DHT22;12364;47.810;8.810;2023-04-24T04:11:05;14.00;94.20
24232;DHT22;12364;47.810;8.810;2023-04-24T04:13:32;13.80;94.20
24232;DHT22;12364;47.810;8.810;2023-04-24T04:15:59;13.80;94.30
24232;DHT22;12364;47.810;8.810;2023-04-24T04:18:26;14.00;94.40
24232;DHT22;12364;47.810;8.810;2023-04-24T04:20:53;13.70;94.40
24232;DHT22;12364;47.810;8.810;2023-04-24T04:23:20;13.80;94.50
24232;DHT22;12364;47.810;8.810;2023-04-24T04:25:47;13.70;94.50
24232;DHT22;12364;47.810;8.810;2023-04-24T04:28:14;13.60;94.40
24232;DHT22;12364;47.810;8.810;2023-04-24T04:30:42;13.80;94.60
24232;DHT22;12364;47.810;8.810;2023-04-24T04:33:09;13.60;94.70
24232;DHT22;12364;47.810;8.810;2023-04-24T04:35:37;13.60;94.60
24232;DHT22;12364;47.810;8.810;2023-04-24T04:38:04;13.80;94.80
24232;DHT22;12364;47.810;8.810;2023-04-24T04:40:31;13.70;94.70
24232;DHT22;12364;47.810;8.810;2023-04-24T04:42:58;13.60;94.80
24232;DHT22;12364;47.810;8.810;2023-04-24T04:45:25;13.40;94.90
24232;DHT22;12364;47.810;8.810;2023-04-24T04:47:54;13.30;95.20
24232;DHT22;12364;47.810;8.810;2023-04-24T04:50:22;13.20;95.30
24232;DHT22;12364;47.810;8.810;2023-04-24T04:52:49;13.20;95.60
24232;DHT22;12364;47.810;8.810;2023-04-24T04:55:16;13.20;95.50
24232;DHT22;12364;47.810;8.810;2023-04-24T04:57:44;13.20;95.40
24232;DHT22;12364;47.810;8.810;2023-04-24T05:00:12;13.30;95.50
24232;DHT22;12364;47.810;8.810;2023-04-24T05:02:39;13.30;95.50
24232;DHT22;12364;47.810;8.810;2023-04-24T05:05:10;13.40;95.40
24232;DHT22;12364;47.810;8.810;2023-04-24T05:07:37;13.50;95.30
24232;DHT22;12364;47.810;8.810;2023-04-24T05:10:04;13.40;95.40
24232;DHT22;12364;47.810;8.810;2023-04-24T05:12:32;13.40;95.30
24232;DHT22;12364;47.810;8.810;2023-04-24T05:14:59;13.40;95.40
24232;DHT22;12364;47.810;8.810;2023-04-24T05:17:26;13.50;95.40
24232;DHT22;12364;47.810;8.810;2023-04-24T05:19:53;13.30;95.60
24232;DHT22;12364;47.810;8.810;2023-04-24T05:22:20;13.40;95.80
24232;DHT22;12364;47.810;8.810;2023-04-24T05:24:47;13.50;95.60
24232;DHT22;12364;47.810;8.810;2023-04-24T05:27:14;13.40;95.50
24232;DHT22;12364;47.810;8.810;2023-04-24T05:29:42;13.50;95.50
24232;DHT22;12364;47.810;8.810;2023-04-24T05:32:09;13.60;95.30
24232;DHT22;12364;47.810;8.810;2023-04-24T05:34:36;13.60;95.20
24232;DHT22;12364;47.810;8.810;2023-04-24T05:37:04;13.40;95.10
24232;DHT22;12364;47.810;8.810;2023-04-24T05:39:35;13.70;95.30
24232;DHT22;12364;47.810;8.810;2023-04-24T05:42:02;14.00;95.40
24232;DHT22;12364;47.810;8.810;2023-04-24T05:44:34;13.60;95.00
24232;DHT22;12364;47.810;8.810;2023-04-24T05:47:01;13.80;95.10
24232;DHT22;12364;47.810;8.810;2023-04-24T05:49:28;13.90;95.20
24232;DHT22;12364;47.810;8.810;2023-04-24T05:51:56;13.80;94.90
24232;DHT22;12364;47.810;8.810;2023-04-24T05:54:23;14.00;95.30
24232;DHT22;12364;47.810;8.810;2023-04-24T05:56:50;13.90;95.20
24232;DHT22;12364;47.810;8.810;2023-04-24T05:59:18;13.80;95.00
24232;DHT22;12364;47.810;8.810;2023-04-24T06:01:45;14.00;95.00
24232;DHT22;12364;47.810;8.810;2023-04-24T06:04:12;13.70;94.70
24232;DHT22;12364;47.810;8.810;2023-04-24T06:06:43;13.60;95.50
24232;DHT22;12364;47.810;8.810;2023-04-24T06:09:10;13.70;95.50
24232;DHT22;12364;47.810;8.810;2023-04-24T06:11:48;13.60;95.40
24232;DHT22;12364;47.810;8.810;2023-04-24T06:14:16;13.80;95.50
24232;DHT22;12364;47.810;8.810;2023-04-24T06:16:43;13.90;95.30
24232;DHT22;12364;47.810;8.810;2023-04-24T06:19:11;13.70;95.20
24232;DHT22;12364;47.810;8.810;2023-04-24T06:21:38;13.90;95.00
24232;DHT22;12364;47.810;8.810;2023-04-24T06:24:06;13.70;95.00
24232;DHT22;12364;47.810;8.810;2023-04-24T06:26:33;13.60;94.90
24232;DHT22;12364;47.810;8.810;2023-04-24T06:29:00;13.30;95.40
24232;DHT22;12364;47.810;8.810;2023-04-24T06:31:28;13.20;95.60
24232;DHT22;12364;47.810;8.810;2023-04-24T06:33:55;13.70;95.40
24232;DHT22;12364;47.810;8.810;2023-04-24T06:36:22;13.80;95.40
24232;DHT22;12364;47.810;8.810;2023-04-24T06:38:50;13.60;94.70
24232;DHT22;12364;47.810;8.810;2023-04-24T06:41:17;13.30;94.70
24232;DHT22;12364;47.810;8.810;2023-04-24T06:43:44;13.70;94.30
24232;DHT22;12364;47.810;8.810;2023-04-24T06:46:11;13.40;94.40
24232;DHT22;12364;47.810;8.810;2023-04-24T06:48:39;13.40;94.50
24232;DHT22;12364;47.810;8.810;2023-04-24T06:51:06;13.50;94.10
24232;DHT22;12364;47.810;8.810;2023-04-24T06:53:34;13.50;93.60
24232;DHT22;12364;47.810;8.810;2023-04-24T06:56:01;13.50;93.70
24232;DHT22;12364;47.810;8.810;2023-04-24T06:58:28;13.60;93.10
24232;DHT22;12364;47.810;8.810;2023-04-24T07:00:57;13.60;92.70
24232;DHT22;12364;47.810;8.810;2023-04-24T07:03:24;13.50;92.30
24232;DHT22;12364;47.810;8.810;2023-04-24T07:05:52;13.30;92.50
24232;DHT22;12364;47.810;8.810;2023-04-24T07:08:20;13.40;92.90
24232;DHT22;12364;47.810;8.810;2023-04-24T07:10:49;13.30;93.30
24232;DHT22;12364;47.810;8.810;2023-04-24T07:13:17;13.20;93.30
24232;DHT22;12364;47.810;8.810;2023-04-24T07:15:44;13.30;93.50
24232;DHT22;12364;47.810;8.810;2023-04-24T07:18:12;13.50;93.10
24232;DHT22;12364;47.810;8.810;2023-04-24T07:20:39;13.60;92.70
24232;DHT22;12364;47.810;8.810;2023-04-24T07:23:06;13.80;92.30
24232;DHT22;12364;47.810;8.810;2023-04-24T07:25:33;14.00;91.80
24232;DHT22;12364;47.810;8.810;2023-04-24T07:28:01;14.00;91.90
24232;DHT22;12364;47.810;8.810;2023-04-24T07:30:28;13.60;91.10
24232;DHT22;12364;47.810;8.810;2023-04-24T07:32:56;14.00;91.40
24232;DHT22;12364;47.810;8.810;2023-04-24T07:35:23;14.20;91.70
24232;DHT22;12364;47.810;8.810;2023-04-24T07:37:55;14.00;91.30
24232;DHT22;12364;47.810;8.810;2023-04-24T07:40:22;13.90;90.40
24232;DHT22;12364;47.810;8.810;2023-04-24T07:42:50;13.70;90.00
24232;DHT22;12364;47.810;8.810;2023-04-24T07:45:17;13.60;90.10
24232;DHT22;12364;47.810;8.810;2023-04-24T07:47:44;13.40;90.30
24232;DHT22;12364;47.810;8.810;2023-04-24T07:50:12;13.50;90.60
24232;DHT22;12364;47.810;8.810;2023-04-24T07:52:40;13.10;91.00
24232;DHT22;12364;47.810;8.810;2023-04-24T07:55:07;13.00;91.70
24232;DHT22;12364;47.810;8.810;2023-04-24T07:57:35;13.10;92.10
24232;DHT22;12364;47.810;8.810;2023-04-24T08:00:03;13.30;92.00
24232;DHT22;12364;47.810;8.810;2023-04-24T08:02:30;13.20;92.10
24232;DHT22;12364;47.810;8.810;2023-04-24T08:04:58;13.40;91.80
24232;DHT22;12364;47.810;8.810;2023-04-24T08:07:26;13.70;91.30
24232;DHT22;12364;47.810;8.810;2023-04-24T08:09:53;13.60;91.10
24232;DHT22;12364;47.810;8.810;2023-04-24T08:12:20;13.80;91.00
24232;DHT22;12364;47.810;8.810;2023-04-24T08:14:47;13.40;90.50
24232;DHT22;12364;47.810;8.810;2023-04-24T08:17:15;13.70;91.00
24232;DHT22;12364;47.810;8.810;2023-04-24T08:19:42;13.70;90.70
24232;DHT22;12364;47.810;8.810;2023-04-24T08:22:15;13.70;89.30
24232;DHT22;12364;47.810;8.810;2023-04-24T08:24:42;13.70;89.80
24232;DHT22;12364;47.810;8.810;2023-04-24T08:27:10;13.60;89.80
24232;DHT22;12364;47.810;8.810;2023-04-24T08:29:37;13.60;88.90
24232;DHT22;12364;47.810;8.810;2023-04-24T08:32:05;13.70;89.40
24232;DHT22;12364;47.810;8.810;2023-04-24T08:34:32;13.80;88.10
24232;DHT22;12364;47.810;8.810;2023-04-24T08:36:59;13.70;87.40
24232;DHT22;12364;47.810;8.810;2023-04-24T08:39:27;13.80;87.80
24232;DHT22;12364;47.810;8.810;2023-04-24T08:41:54;13.40;86.80
24232;DHT22;12364;47.810;8.810;2023-04-24T08:44:22;13.30;86.90
24232;DHT22;12364;47.810;8.810;2023-04-24T08:46:49;13.90;87.70
24232;DHT22;12364;47.810;8.810;2023-04-24T08:49:18;13.90;87.70
24232;DHT22;12364;47.810;8.810;2023-04-24T08:51:45;13.40;84.50
24232;DHT22;12364;47.810;8.810;2023-04-24T08:54:14;13.70;85.30
24232;DHT22;12364;47.810;8.810;2023-04-24T08:56:43;13.50;82.30
24232;DHT22;12364;47.810;8.810;2023-04-24T08:59:11;13.40;83.80
24232;DHT22;12364;47.810;8.810;2023-04-24T09:01:38;13.40;83.00
24232;DHT22;12364;47.810;8.810;2023-04-24T09:04:07;13.50;81.40
24232;DHT22;12364;47.810;8.810;2023-04-24T09:06:37;13.50;82.70
24232;DHT22;12364;47.810;8.810;2023-04-24T09:09:05;13.40;81.70
24232;DHT22;12364;47.810;8.810;2023-04-24T09:11:32;13.30;81.10
24232;DHT22;12364;47.810;8.810;2023-04-24T09:14:00;13.50;81.90
24232;DHT22;12364;47.810;8.810;2023-04-24T09:16:27;13.50;82.60
24232;DHT22;12364;47.810;8.810;2023-04-24T09:18:55;13.50;81.60
24232;DHT22;12364;47.810;8.810;2023-04-24T09:21:27;13.50;81.10
24232;DHT22;12364;47.810;8.810;2023-04-24T09:24:06;13.30;81.00
24232;DHT22;12364;47.810;8.810;2023-04-24T09:26:35;13.30;79.20
24232;DHT22;12364;47.810;8.810;2023-04-24T09:29:05;13.20;79.90
24232;DHT22;12364;47.810;8.810;2023-04-24T09:31:32;13.10;78.80
24232;DHT22;12364;47.810;8.810;2023-04-24T09:34:01;13.00;78.40
24232;DHT22;12364;47.810;8.810;2023-04-24T09:36:37;13.30;80.40
24232;DHT22;12364;47.810;8.810;2023-04-24T09:39:05;13.20;78.80
24232;DHT22;12364;47.810;8.810;2023-04-24T09:41:35;13.20;80.70
24232;DHT22;12364;47.810;8.810;2023-04-24T09:44:12;13.50;80.20
24232;DHT22;12364;47.810;8.810;2023-04-24T09:46:44;13.40;79.90
24232;DHT22;12364;47.810;8.810;2023-04-24T09:49:15;13.40;78.70
24232;DHT22;12364;47.810;8.810;2023-04-24T09:51:44;13.30;76.00
24232;DHT22;12364;47.810;8.810;2023-04-24T09:54:15;13.40;74.90
24232;DHT22;12364;47.810;8.810;2023-04-24T09:56:43;13.20;77.10
24232;DHT22;12364;47.810;8.810;2023-04-24T09:59:12;13.40;77.00
24232;DHT22;12364;47.810;8.810;2023-04-24T10:01:39;13.40;77.60
24232;DHT22;12364;47.810;8.810;2023-04-24T10:04:19;13.30;76.00
24232;DHT22;12364;47.810;8.810;2023-04-24T10:06:48;13.30;77.00
24232;DHT22;12364;47.810;8.810;2023-04-24T10:09:17;13.60;77.00
24232;DHT22;12364;47.810;8.810;2023-04-24T10:11:46;13.60;77.10
24232;DHT22;12364;47.810;8.810;2023-04-24T10:14:17;13.90;76.70
24232;DHT22;12364;47.810;8.810;2023-04-24T10:16:45;13.70;76.20
24232;DHT22;12364;47.810;8.810;2023-04-24T10:19:15;13.90;76.00
24232;DHT22;12364;47.810;8.810;2023-04-24T10:21:43;13.80;76.10
24232;DHT22;12364;47.810;8.810;2023-04-24T10:24:14;13.90;76.50
24232;DHT22;12364;47.810;8.810;2023-04-24T10:26:42;13.80;74.80
24232;DHT22;12364;47.810;8.810;2023-04-24T10:29:10;13.90;75.30
24232;DHT22;12364;47.810;8.810;2023-04-24T10:31:39;13.60;74.40
24232;DHT22;12364;47.810;8.810;2023-04-24T10:34:08;13.70;74.10
24232;DHT22;12364;47.810;8.810;2023-04-24T10:36:36;13.70;74.00
24232;DHT22;12364;47.810;8.810;2023-04-24T10:39:05;13.80;76.80
24232;DHT22;12364;47.810;8.810;2023-04-24T10:41:36;14.00;74.80
24232;DHT22;12364;47.810;8.810;2023-04-24T10:46:32;14.00;74.70
24232;DHT22;12364;47.810;8.810;2023-04-24T10:48:59;14.00;75.90
24232;DHT22;12364;47.810;8.810;2023-04-24T10:51:49;13.90;75.90
24232;DHT22;12364;47.810;8.810;2023-04-24T10:56:53;13.90;75.00
24232;DHT22;12364;47.810;8.810;2023-04-24T10:59:40;13.80;72.70
24232;DHT22;12364;47.810;8.810;2023-04-24T11:02:11;14.00;74.10
24232;DHT22;12364;47.810;8.810;2023-04-24T11:04:41;13.80;73.50
24232;DHT22;12364;47.810;8.810;2023-04-24T11:07:10;14.00;74.70
24232;DHT22;12364;47.810;8.810;2023-04-24T11:09:38;14.00;74.40
24232;DHT22;12364;47.810;8.810;2023-04-24T11:12:09;14.20;74.80
24232;DHT22;12364;47.810;8.810;2023-04-24T11:17:30;14.20;75.80
24232;DHT22;12364;47.810;8.810;2023-04-24T11:20:08;14.50;76.80
24232;DHT22;12364;47.810;8.810;2023-04-24T11:22:54;14.30;77.70
24232;DHT22;12364;47.810;8.810;2023-04-24T11:25:22;14.40;75.00
24232;DHT22;12364;47.810;8.810;2023-04-24T11:27:49;14.70;76.60
24232;DHT22;12364;47.810;8.810;2023-04-24T11:30:17;14.50;74.40
24232;DHT22;12364;47.810;8.810;2023-04-24T11:32:47;14.70;74.60
24232;DHT22;12364;47.810;8.810;2023-04-24T11:35:20;14.50;73.90
24232;DHT22;12364;47.810;8.810;2023-04-24T11:37:49;14.60;74.40
24232;DHT22;12364;47.810;8.810;2023-04-24T11:40:20;14.80;74.70
24232;DHT22;12364;47.810;8.810;2023-04-24T11:42:50;14.90;75.00
24232;DHT22;12364;47.810;8.810;2023-04-24T11:45:20;14.70;75.10
24232;DHT22;12364;47.810;8.810;2023-04-24T11:47:48;14.70;75.50
24232;DHT22;12364;47.810;8.810;2023-04-24T11:50:25;14.60;73.90
24232;DHT22;12364;47.810;8.810;2023-04-24T11:52:56;14.70;75.50
24232;DHT22;12364;47.810;8.810;2023-04-24T11:55:24;14.70;75.10
24232;DHT22;12364;47.810;8.810;2023-04-24T11:57:56;14.70;75.60
24232;DHT22;12364;47.810;8.810;2023-04-24T12:03:07;14.70;76.40
24232;DHT22;12364;47.810;8.810;2023-04-24T12:05:35;14.50;74.50
24232;DHT22;12364;47.810;8.810;2023-04-24T12:08:03;14.20;74.00
24232;DHT22;12364;47.810;8.810;2023-04-24T12:10:31;14.40;74.20
24232;DHT22;12364;47.810;8.810;2023-04-24T12:12:59;14.30;73.30
24232;DHT22;12364;47.810;8.810;2023-04-24T12:15:27;14.50;74.10
24232;DHT22;12364;47.810;8.810;2023-04-24T12:17:55;14.30;75.10
24232;DHT22;12364;47.810;8.810;2023-04-24T12:20:32;14.30;74.50
24232;DHT22;12364;47.810;8.810;2023-04-24T12:23:00;14.60;75.50
24232;DHT22;12364;47.810;8.810;2023-04-24T12:25:33;14.70;74.90
24232;DHT22;12364;47.810;8.810;2023-04-24T12:30:33;14.50;74.30
24232;DHT22;12364;47.810;8.810;2023-04-24T12:33:01;14.30;74.50
24232;DHT22;12364;47.810;8.810;2023-04-24T12:35:30;14.60;75.60
24232;DHT22;12364;47.810;8.810;2023-04-24T12:38:08;14.50;75.20
24232;DHT22;12364;47.810;8.810;2023-04-24T12:40:36;14.40;75.60
24232;DHT22;12364;47.810;8.810;2023-04-24T12:43:12;14.50;76.30
24232;DHT22;12364;47.810;8.810;2023-04-24T12:45:40;14.30;76.20
24232;DHT22;12364;47.810;8.810;2023-04-24T12:48:07;14.50;76.80
24232;DHT22;12364;47.810;8.810;2023-04-24T12:50:34;14.70;76.30
24232;DHT22;12364;47.810;8.810;2023-04-24T12:53:02;14.50;76.10
24232;DHT22;12364;47.810;8.810;2023-04-24T12:55:29;14.70;75.10
24232;DHT22;12364;47.810;8.810;2023-04-24T12:57:57;14.30;76.60
24232;DHT22;12364;47.810;8.810;2023-04-24T13:00:25;14.50;76.00
24232;DHT22;12364;47.810;8.810;2023-04-24T13:02:53;14.60;76.60
24232;DHT22;12364;47.810;8.810;2023-04-24T13:05:20;14.70;75.80
24232;DHT22;12364;47.810;8.810;2023-04-24T13:07:51;14.60;75.40
24232;DHT22;12364;47.810;8.810;2023-04-24T13:10:18;14.70;76.50
24232;DHT22;12364;47.810;8.810;2023-04-24T13:12:46;14.70;76.80
24232;DHT22;12364;47.810;8.810;2023-04-24T13:15:13;14.90;75.30
24232;DHT22;12364;47.810;8.810;2023-04-24T13:17:41;14.70;75.10
24232;DHT22;12364;47.810;8.810;2023-04-24T13:20:08;14.70;75.20
24232;DHT22;12364;47.810;8.810;2023-04-24T13:22:36;14.50;74.60
24232;DHT22;12364;47.810;8.810;2023-04-24T13:25:04;14.70;74.70
24232;DHT22;12364;47.810;8.810;2023-04-24T13:27:33;14.70;75.30
24232;DHT22;12364;47.810;8.810;2023-04-24T13:30:00;15.00;75.10
24232;DHT22;12364;47.810;8.810;2023-04-24T13:32:28;14.70;73.30
24232;DHT22;12364;47.810;8.810;2023-04-24T13:34:56;15.00;73.50
24232;DHT22;12364;47.810;8.810;2023-04-24T13:37:23;15.00;73.20
24232;DHT22;12364;47.810;8.810;2023-04-24T13:39:51;14.80;73.60
24232;DHT22;12364;47.810;8.810;2023-04-24T13:42:19;14.80;74.40
24232;DHT22;12364;47.810;8.810;2023-04-24T13:44:47;15.10;73.40
24232;DHT22;12364;47.810;8.810;2023-04-24T13:47:14;15.10;72.60
24232;DHT22;12364;47.810;8.810;2023-04-24T13:49:42;15.00;73.30
24232;DHT22;12364;47.810;8.810;2023-04-24T13:52:09;14.90;72.60
24232;DHT22;12364;47.810;8.810;2023-04-24T13:54:37;15.00;73.30
24232;DHT22;12364;47.810;8.810;2023-04-24T13:57:04;15.00;73.20
24232;DHT22;12364;47.810;8.810;2023-04-24T13:59:32;14.50;72.90
24232;DHT22;12364;47.810;8.810;2023-04-24T14:01:59;14.90;73.50
24232;DHT22;12364;47.810;8.810;2023-04-24T14:04:27;14.80;73.80
24232;DHT22;12364;47.810;8.810;2023-04-24T14:06:54;14.70;74.00
24232;DHT22;12364;47.810;8.810;2023-04-24T14:09:22;14.80;74.70
24232;DHT22;12364;47.810;8.810;2023-04-24T14:11:49;14.60;74.80
24232;DHT22;12364;47.810;8.810;2023-04-24T14:14:17;14.50;75.20
24232;DHT22;12364;47.810;8.810;2023-04-24T14:16:44;14.60;75.50
24232;DHT22;12364;47.810;8.810;2023-04-24T14:19:12;14.60;75.50
24232;DHT22;12364;47.810;8.810;2023-04-24T14:21:39;14.90;75.40
24232;DHT22;12364;47.810;8.810;2023-04-24T14:24:07;14.80;75.50
24232;DHT22;12364;47.810;8.810;2023-04-24T14:26:35;15.00;76.90
24232;DHT22;12364;47.810;8.810;2023-04-24T14:29:02;15.10;76.90
24232;DHT22;12364;47.810;8.810;2023-04-24T14:31:40;14.90;76.70
24232;DHT22;12364;47.810;8.810;2023-04-24T14:34:10;14.70;75.80
24232;DHT22;12364;47.810;8.810;2023-04-24T14:36:38;14.70;76.60
24232;DHT22;12364;47.810;8.810;2023-04-24T14:39:05;14.70;75.90
24232;DHT22;12364;47.810;8.810;2023-04-24T14:41:34;14.90;76.40
24232;DHT22;12364;47.810;8.810;2023-04-24T14:44:03;14.70;76.10
24232;DHT22;12364;47.810;8.810;2023-04-24T14:46:36;14.70;75.70
24232;DHT22;12364;47.810;8.810;2023-04-24T14:49:03;14.90;76.20
24232;DHT22;12364;47.810;8.810;2023-04-24T14:51:31;14.80;76.10
24232;DHT22;12364;47.810;8.810;2023-04-24T14:53:58;14.80;75.80
24232;DHT22;12364;47.810;8.810;2023-04-24T14:56:26;14.70;75.20
24232;DHT22;12364;47.810;8.810;2023-04-24T14:58:54;14.70;75.70
24232;DHT22;12364;47.810;8.810;2023-04-24T15:01:21;14.70;76.30
24232;DHT22;12364;47.810;8.810;2023-04-24T15:03:49;14.70;77.00
24232;DHT22;12364;47.810;8.810;2023-04-24T15:06:17;14.70;76.70
24232;DHT22;12364;47.810;8.810;2023-04-24T15:08:45;14.40;76.60
24232;DHT22;12364;47.810;8.810;2023-04-24T15:11:16;14.90;76.30
24232;DHT22;12364;47.810;8.810;2023-04-24T15:13:43;14.90;76.50
24232;DHT22;12364;47.810;8.810;2023-04-24T15:16:15;14.80;76.30
24232;DHT22;12364;47.810;8.810;2023-04-24T15:18:43;14.90;76.90
24232;DHT22;12364;47.810;8.810;2023-04-24T15:21:10;14.90;75.90
24232;DHT22;12364;47.810;8.810;2023-04-24T15:23:39;14.90;76.20
24232;DHT22;12364;47.810;8.810;2023-04-24T15:26:07;14.90;75.70
24232;DHT22;12364;47.810;8.810;2023-04-24T15:28:34;14.90;76.20
24232;DHT22;12364;47.810;8.810;2023-04-24T15:31:02;15.00;76.20
24232;DHT22;12364;47.810;8.810;2023-04-24T15:33:29;15.00;76.80
24232;DHT22;12364;47.810;8.810;2023-04-24T15:35:56;15.00;77.40
24232;DHT22;12364;47.810;8.810;2023-04-24T15:38:23;15.30;76.00
24232;DHT22;12364;47.810;8.810;2023-04-24T15:40:50;15.10;76.40
24232;DHT22;12364;47.810;8.810;2023-04-24T15:43:18;15.10;76.40
24232;DHT22;12364;47.810;8.810;2023-04-24T15:45:45;15.30;76.90
24232;DHT22;12364;47.810;8.810;2023-04-24T15:48:13;15.10;76.90
24232;DHT22;12364;47.810;8.810;2023-04-24T15:50:40;15.30;76.90
24232;DHT22;12364;47.810;8.810;2023-04-24T15:53:07;15.10;76.30
24232;DHT22;12364;47.810;8.810;2023-04-24T15:55:34;15.20;76.10
24232;DHT22;12364;47.810;8.810;2023-04-24T15:58:03;15.20;77.00
24232;DHT22;12364;47.810;8.810;2023-04-24T16:00:30;15.10;76.60
24232;DHT22;12364;47.810;8.810;2023-04-24T16:03:00;15.00;76.30
24232;DHT22;12364;47.810;8.810;2023-04-24T16:05:28;14.70;76.10
24232;DHT22;12364;47.810;8.810;2023-04-24T16:07:55;14.60;76.90
24232;DHT22;12364;47.810;8.810;2023-04-24T16:10:22;14.60;76.20
24232;DHT22;12364;47.810;8.810;2023-04-24T16:12:49;14.50;76.90
24232;DHT22;12364;47.810;8.810;2023-04-24T16:15:17;14.30;75.40
24232;DHT22;12364;47.810;8.810;2023-04-24T16:17:45;14.60;74.60
24232;DHT22;12364;47.810;8.810;2023-04-24T16:20:12;14.50;74.40
24232;DHT22;12364;47.810;8.810;2023-04-24T16:22:39;14.50;74.00
24232;DHT22;12364;47.810;8.810;2023-04-24T16:25:07;14.70;74.40
24232;DHT22;12364;47.810;8.810;2023-04-24T16:27:34;14.60;74.60
24232;DHT22;12364;47.810;8.810;2023-04-24T16:30:02;14.70;74.60
24232;DHT22;12364;47.810;8.810;2023-04-24T16:32:32;14.60;74.10
24232;DHT22;12364;47.810;8.810;2023-04-24T16:34:59;14.50;73.90
24232;DHT22;12364;47.810;8.810;2023-04-24T16:37:28;14.70;75.90
24232;DHT22;12364;47.810;8.810;2023-04-24T16:39:56;14.80;76.60
24232;DHT22;12364;47.810;8.810;2023-04-24T16:42:23;14.80;76.20
24232;DHT22;12364;47.810;8.810;2023-04-24T16:44:50;15.10;76.30
24232;DHT22;12364;47.810;8.810;2023-04-24T16:47:17;15.00;75.50
24232;DHT22;12364;47.810;8.810;2023-04-24T16:49:44;14.90;74.70
24232;DHT22;12364;47.810;8.810;2023-04-24T16:52:11;15.10;73.90
24232;DHT22;12364;47.810;8.810;2023-04-24T16:54:39;14.90;74.40
24232;DHT22;12364;47.810;8.810;2023-04-24T16:57:06;14.80;73.00
24232;DHT22;12364;47.810;8.810;2023-04-24T16:59:33;15.00;73.30
24232;DHT22;12364;47.810;8.810;2023-04-24T17:02:01;14.80;72.50
24232;DHT22;12364;47.810;8.810;2023-04-24T17:04:28;15.00;73.20
24232;DHT22;12364;47.810;8.810;2023-04-24T17:07:08;15.00;73.10
24232;DHT22;12364;47.810;8.810;2023-04-24T17:09:35;14.80;73.40
24232;DHT22;12364;47.810;8.810;2023-04-24T17:12:02;15.00;73.60
24232;DHT22;12364;47.810;8.810;2023-04-24T17:14:29;15.00;73.50
24232;DHT22;12364;47.810;8.810;2023-04-24T17:16:56;15.00;73.30
24232;DHT22;12364;47.810;8.810;2023-04-24T17:19:24;15.00;72.70
24232;DHT22;12364;47.810;8.810;2023-04-24T17:21:51;15.00;72.90
24232;DHT22;12364;47.810;8.810;2023-04-24T17:24:18;15.10;72.60
24232;DHT22;12364;47.810;8.810;2023-04-24T17:26:45;15.10;71.70
24232;DHT22;12364;47.810;8.810;2023-04-24T17:29:12;14.90;72.10
24232;DHT22;12364;47.810;8.810;2023-04-24T17:31:41;14.90;73.20
24232;DHT22;12364;47.810;8.810;2023-04-24T17:34:08;14.90;73.00
24232;DHT22;12364;47.810;8.810;2023-04-24T17:36:36;14.90;73.00
24232;DHT22;12364;47.810;8.810;2023-04-24T17:39:04;14.90;73.30
24232;DHT22;12364;47.810;8.810;2023-04-24T17:41:31;15.10;73.70
24232;DHT22;12364;47.810;8.810;2023-04-24T17:43:58;14.90;73.40
24232;DHT22;12364;47.810;8.810;2023-04-24T17:46:25;15.00;73.70
24232;DHT22;12364;47.810;8.810;2023-04-24T17:48:52;15.00;73.50
24232;DHT22;12364;47.810;8.810;2023-04-24T17:51:19;14.90;73.60
24232;DHT22;12364;47.810;8.810;2023-04-24T17:53:46;14.80;73.80
24232;DHT22;12364;47.810;8.810;2023-04-24T17:56:14;14.70;73.60
24232;DHT22;12364;47.810;8.810;2023-04-24T17:58:41;14.60;73.60
24232;DHT22;12364;47.810;8.810;2023-04-24T18:01:08;14.50;74.10
24232;DHT22;12364;47.810;8.810;2023-04-24T18:03:35;14.50;74.70
24232;DHT22;12364;47.810;8.810;2023-04-24T18:06:04;14.60;74.60
24232;DHT22;12364;47.810;8.810;2023-04-24T18:08:31;14.50;74.60
24232;DHT22;12364;47.810;8.810;2023-04-24T18:10:58;14.60;74.80
24232;DHT22;12364;47.810;8.810;2023-04-24T18:13:25;14.50;74.80
24232;DHT22;12364;47.810;8.810;2023-04-24T18:15:52;14.50;75.00
24232;DHT22;12364;47.810;8.810;2023-04-24T18:18:19;14.40;75.00
24232;DHT22;12364;47.810;8.810;2023-04-24T18:20:46;14.30;74.70
24232;DHT22;12364;47.810;8.810;2023-04-24T18:23:13;14.30;74.80
24232;DHT22;12364;47.810;8.810;2023-04-24T18:25:40;14.30;74.50
24232;DHT22;12364;47.810;8.810;2023-04-24T18:28:08;14.40;74.60
24232;DHT22;12364;47.810;8.810;2023-04-24T18:30:35;14.40;74.60
24232;DHT22;12364;47.810;8.810;2023-04-24T18:33:02;14.40;74.10
24232;DHT22;12364;47.810;8.810;2023-04-24T18:35:30;14.40;73.70
24232;DHT22;12364;47.810;8.810;2023-04-24T18:37:57;14.40;73.90
24232;DHT22;12364;47.810;8.810;2023-04-24T18:40:24;14.30;73.60
24232;DHT22;12364;47.810;8.810;2023-04-24T18:42:51;14.30;74.00
24232;DHT22;12364;47.810;8.810;2023-04-24T18:45:18;14.30;73.70
24232;DHT22;12364;47.810;8.810;2023-04-24T18:47:44;14.30;73.50
24232;DHT22;12364;47.810;8.810;2023-04-24T18:50:12;14.20;73.60
24232;DHT22;12364;47.810;8.810;2023-04-24T18:52:40;14.10;73.90
24232;DHT22;12364;47.810;8.810;2023-04-24T18:55:07;14.10;73.90
24232;DHT22;12364;47.810;8.810;2023-04-24T18:57:35;14.10;74.10
24232;DHT22;12364;47.810;8.810;2023-04-24T19:00:02;14.10;74.10
24232;DHT22;12364;47.810;8.810;2023-04-24T19:02:29;14.10;73.80
24232;DHT22;12364;47.810;8.810;2023-04-24T19:04:57;14.00;74.20
24232;DHT22;12364;47.810;8.810;2023-04-24T19:07:23;14.00;74.40
24232;DHT22;12364;47.810;8.810;2023-04-24T19:09:50;14.00;74.30
24232;DHT22;12364;47.810;8.810;2023-04-24T19:12:17;14.00;74.50
24232;DHT22;12364;47.810;8.810;2023-04-24T19:14:48;14.10;74.60
24232;DHT22;12364;47.810;8.810;2023-04-24T19:17:15;14.20;74.60
24232;DHT22;12364;47.810;8.810;2023-04-24T19:19:48;14.10;74.50
24232;DHT22;12364;47.810;8.810;2023-04-24T19:22:15;14.20;74.40
24232;DHT22;12364;47.810;8.810;2023-04-24T19:24:42;14.20;74.20
24232;DHT22;12364;47.810;8.810;2023-04-24T19:27:09;14.30;74.10
24232;DHT22;12364;47.810;8.810;2023-04-24T19:29:36;14.40;74.40
24232;DHT22;12364;47.810;8.810;2023-04-24T19:32:03;14.40;74.80
24232;DHT22;12364;47.810;8.810;2023-04-24T19:34:30;14.40;74.90